Карточка аэропорта UWLL

Внимание!
Информация на этой странице в стадии наполнения.
Если вы не увидели какой-то информации, или заметили неточность - пожалуйста сообщите нам!
Спасибо!
Команда RU-STAFF
Название аэропортаБаратаевка
Название аэропорта (англ.)Barataevka
Превышение426 ft. (129.8 m.)
Координаты54°16.236', 48°13.416'
Высота перехода900
Эшелон переходаBy ATC
Коды ответчика1000
Зона ОрВДСамара РПИ (UWWW)
Данные METARUWLL 271100Z 18003MPS CAVOK M13/M15 Q1019 R20/850242 NOSIG RMK QFE754/1005
Проноз погоды (TAF)UWLL 270751Z 2709/2809 19003G08MPS 6000 -SN BKN016 TXM08/2803Z TNM15/2709Z
NOTAMshow/hide NOTAM
AWOS   TABLE

Информация о ВПП


Диспетчерские позиции

Позывной Наименование органа УВД Частота
UWLL_GNDУльяновск-Руление121.8
UWLL_R_APPУльяновск-Круг120.8
UWLL_TWRУльяновск-Старт/Посадка120.4
UWLL_APPУльяновск-Подход127.3



Спутниковое изображение